Roslindale, MA

10:02 AM EST on November 23, 2014 (GMT -0500)
Norwood Memorial | Change Station
CLOSE
Current Station
Airport
Location: Norwood,
Elevation: 49 ft
Nearby Weather Stations

Elev 49 ft 42.19 °N, 71.17 °W | Updated 9 minutes ago

Mostly Cloudy
Mostly Cloudy
50 °F
Feels Like 50 °F
N
13
Wind Variable Wind from SW

Today
High -- | Low -- °F
--% Chance of Precip.
Yesterday
High -- | Low -- °F
Precip. -- in
6:44 AM 4:16 PM
New Moon, 1% visible
Pressure 30.15 in
Visibility 10.0 miles
Clouds Few 9000 ft
Overcast 10000 ft
Dew Point 26 °F
Humidity 39%
Rainfall 0.00 in
Snow Depth Not available.
UV 1 out of 12
Pollen .10 out of 12
Air Quality Not available.
Flu Activity Not available.
METAR KOWD 231453Z 23011KT 10SM FEW090 OVC100 10/M03 A3015 RMK AO2 SLP210 T01001033 51014

More Conditions Fewer Conditions

Pressure 30.15 in
Visibility 10.0 miles
Clouds Few 9000 ft
Overcast 10000 ft
Dew Point 26 °F
Humidity 39%
Rainfall 0.00 in
Snow Depth Not available.
UV 1 out of 12
Pollen .10 out of 12
Air Quality Not available.
Flu Activity Not available.
METAR KOWD 231453Z 23011KT 10SM FEW090 OVC100 10/M03 A3015 RMK AO2 SLP210 T01001033 51014

More Conditions Fewer Conditions

10-Day Weather Forecast

Almanac

Astronomy

Nov. 23, 2014 Rise Set
Actual Time
Civil Twilight
Nautical Twilight
Astronomical Twilight
Moon
Length of Visible Light
Length of Day
Tomorrow will be .
, % of the Moon is Illuminated

Today's Extremes

State Highs State Lows

Community

WunderPhotos

Upload Photos

1,773,085 photos uploaded!

WunderBlogs® & News

Nearby

Air Quality

  Air Quality AQ Index Pollutant
Not available.

Snow Depth

Station Depth Elevation

Earthquake Activity

City Distance Mag. Time & Date
Minimum magnitude displayed is 2.5.

Coastal Water Temperatures

Place Temperature

Nearby Weather Stations